createdAt,value
2018-11-07T00:01:47.560Z,43.50
2018-11-07T00:04:15.784Z,43.30
2018-11-07T00:06:43.948Z,43.60
2018-11-07T00:09:12.096Z,43.60
2018-11-07T00:11:40.232Z,43.60
2018-11-07T00:14:08.403Z,44.50
2018-11-07T00:16:36.552Z,43.90
2018-11-07T00:19:05.080Z,44.00
2018-11-07T00:21:33.233Z,44.00
2018-11-07T00:24:01.364Z,44.30
2018-11-07T00:26:29.604Z,44.50
2018-11-07T00:28:57.692Z,44.30
2018-11-07T00:31:25.857Z,44.00
2018-11-07T00:33:54.063Z,44.30
2018-11-07T00:36:22.196Z,44.40
2018-11-07T00:38:50.344Z,44.50
2018-11-07T00:41:18.500Z,44.30
2018-11-07T00:43:46.648Z,44.50
2018-11-07T00:46:14.799Z,44.90
2018-11-07T00:48:42.997Z,44.70
2018-11-07T00:51:11.140Z,45.60
2018-11-07T00:53:39.265Z,45.10
2018-11-07T00:56:07.395Z,45.60
2018-11-07T00:58:35.540Z,46.00
2018-11-07T01:01:03.725Z,45.60
2018-11-07T01:03:31.868Z,45.70
2018-11-07T01:06:00.013Z,45.90
2018-11-07T01:08:28.169Z,46.00
2018-11-07T01:10:56.317Z,46.60
2018-11-07T01:13:24.489Z,46.40
2018-11-07T01:15:52.641Z,46.60
2018-11-07T01:18:20.780Z,46.80
2018-11-07T01:20:48.925Z,46.90
2018-11-07T01:23:17.044Z,46.90
2018-11-07T01:25:45.188Z,47.40
2018-11-07T01:28:13.377Z,47.40
2018-11-07T01:30:41.492Z,47.50
2018-11-07T01:33:09.636Z,47.90
2018-11-07T01:35:37.774Z,48.00
2018-11-07T01:38:06.170Z,48.20
2018-11-07T01:40:34.308Z,48.40
2018-11-07T01:43:02.485Z,48.50
2018-11-07T01:45:30.592Z,48.70
2018-11-07T01:47:58.770Z,49.00
2018-11-07T01:50:26.917Z,49.10
2018-11-07T01:52:55.053Z,48.90
2018-11-07T01:55:23.189Z,49.20
2018-11-07T01:57:51.341Z,49.40
2018-11-07T02:00:19.492Z,49.20
2018-11-07T02:02:47.627Z,49.50
2018-11-07T02:05:15.793Z,49.90
2018-11-07T02:07:43.932Z,50.00
2018-11-07T02:10:12.115Z,50.20
2018-11-07T02:12:41.228Z,50.40
2018-11-07T02:15:10.247Z,50.90
2018-11-07T02:17:38.399Z,51.10
2018-11-07T02:20:07.819Z,51.10
2018-11-07T02:22:36.004Z,51.50
2018-11-07T02:25:04.216Z,51.40
2018-11-07T02:27:32.365Z,51.90
2018-11-07T02:30:00.521Z,51.80
2018-11-07T02:32:28.690Z,52.50
2018-11-07T02:34:56.857Z,52.90
2018-11-07T02:37:25.017Z,52.60
2018-11-07T02:39:53.168Z,52.80
2018-11-07T02:42:21.320Z,53.10
2018-11-07T02:44:49.469Z,53.30
2018-11-07T02:47:17.651Z,53.20
2018-11-07T02:49:45.799Z,53.50
2018-11-07T02:52:13.966Z,54.30
2018-11-07T02:54:42.872Z,54.00
2018-11-07T02:57:11.024Z,54.40
2018-11-07T02:59:39.179Z,54.50
2018-11-07T03:02:07.284Z,55.00
2018-11-07T03:04:35.559Z,54.90
2018-11-07T03:07:03.730Z,55.10
2018-11-07T03:09:31.872Z,55.40
2018-11-07T03:12:00.037Z,55.40
2018-11-07T03:14:28.252Z,55.80
2018-11-07T03:16:56.400Z,55.70
2018-11-07T03:19:24.563Z,56.10
2018-11-07T03:21:52.708Z,56.10
2018-11-07T03:24:20.856Z,56.30
2018-11-07T03:26:49.012Z,57.00
2018-11-07T03:29:17.164Z,56.80
2018-11-07T03:31:45.284Z,56.90
2018-11-07T03:34:13.432Z,56.80
2018-11-07T03:36:41.587Z,56.90
2018-11-07T03:39:10.748Z,57.90
2018-11-07T03:41:38.956Z,58.60
2018-11-07T03:44:08.075Z,58.50
2018-11-07T03:46:36.232Z,57.70
2018-11-07T03:49:04.556Z,57.50
2018-11-07T03:51:32.700Z,58.00
2018-11-07T03:54:00.856Z,58.50
2018-11-07T03:56:28.972Z,58.50
2018-11-07T03:58:57.224Z,58.40
2018-11-07T04:01:25.377Z,58.50
2018-11-07T04:03:53.520Z,58.80
2018-11-07T04:06:21.687Z,59.00
2018-11-07T04:08:49.819Z,59.10
2018-11-07T04:11:18.052Z,59.30
2018-11-07T04:13:46.204Z,59.50
2018-11-07T04:16:14.350Z,59.20
2018-11-07T04:18:42.529Z,59.20
2018-11-07T04:21:10.708Z,59.70
2018-11-07T04:23:38.834Z,59.90
2018-11-07T04:26:07.082Z,60.30
2018-11-07T04:28:35.241Z,60.00
2018-11-07T04:31:03.401Z,60.50
2018-11-07T04:33:31.589Z,61.00
2018-11-07T04:35:59.746Z,61.10
2018-11-07T04:38:27.909Z,61.30
2018-11-07T04:40:56.060Z,61.20
2018-11-07T04:43:24.208Z,61.20
2018-11-07T04:45:52.336Z,61.40
2018-11-07T04:48:20.526Z,61.20
2018-11-07T04:50:48.696Z,60.90
2018-11-07T04:53:16.893Z,61.60
2018-11-07T04:55:45.104Z,61.50
2018-11-07T04:58:13.244Z,61.10
2018-11-07T05:00:41.347Z,61.20
2018-11-07T05:03:09.545Z,61.80
2018-11-07T05:05:37.712Z,62.30
2018-11-07T05:08:05.855Z,63.00
2018-11-07T05:10:34.003Z,63.20
2018-11-07T05:13:02.214Z,62.80
2018-11-07T05:15:30.348Z,63.00
2018-11-07T05:17:58.472Z,62.90
2018-11-07T05:20:26.624Z,63.00
2018-11-07T05:22:54.823Z,63.50
2018-11-07T05:25:22.944Z,64.00
2018-11-07T05:27:51.100Z,63.80
2018-11-07T05:30:19.260Z,64.30
2018-11-07T05:32:47.566Z,64.10
2018-11-07T05:35:15.718Z,64.70
2018-11-07T05:37:43.844Z,64.50
2018-11-07T05:40:11.993Z,64.90
2018-11-07T05:42:40.111Z,65.10
2018-11-07T05:45:08.367Z,65.30
2018-11-07T05:47:36.518Z,65.30
2018-11-07T05:50:06.103Z,65.10
2018-11-07T05:52:34.344Z,65.40
2018-11-07T05:55:02.543Z,65.10
2018-11-07T05:57:30.773Z,65.70
2018-11-07T05:59:58.938Z,65.80
2018-11-07T06:02:27.161Z,66.00
2018-11-07T06:04:55.345Z,65.70
2018-11-07T06:07:23.509Z,66.40
2018-11-07T06:09:51.767Z,65.60
2018-11-07T06:12:19.956Z,65.40
2018-11-07T06:14:48.109Z,65.60
2018-11-07T06:17:16.399Z,66.20
2018-11-07T06:19:44.566Z,66.00
2018-11-07T06:22:12.684Z,65.60
2018-11-07T06:24:40.860Z,65.30
2018-11-07T06:27:09.060Z,65.20
2018-11-07T06:29:37.247Z,65.70
2018-11-07T06:32:05.421Z,65.30
2018-11-07T06:34:33.774Z,64.50
2018-11-07T06:37:01.969Z,64.10
2018-11-07T06:39:30.260Z,63.90
2018-11-07T06:41:59.172Z,63.50
2018-11-07T06:44:27.407Z,63.80
2018-11-07T06:46:55.531Z,63.50
2018-11-07T06:49:23.695Z,63.50
2018-11-07T06:51:51.926Z,63.60
2018-11-07T06:54:20.078Z,62.80
2018-11-07T06:56:48.332Z,62.40
2018-11-07T06:59:16.563Z,62.30
2018-11-07T07:01:44.758Z,61.50
2018-11-07T07:04:12.946Z,61.20
2018-11-07T07:06:41.096Z,61.30
2018-11-07T07:09:09.964Z,61.00
2018-11-07T07:11:38.112Z,60.80
2018-11-07T07:14:06.751Z,60.60
2018-11-07T07:16:35.104Z,60.30
2018-11-07T07:19:03.519Z,59.70
2018-11-07T07:21:31.720Z,59.10
2018-11-07T07:23:59.977Z,59.50
2018-11-07T07:26:28.201Z,59.70
2018-11-07T07:28:56.412Z,59.30
2018-11-07T07:31:24.600Z,58.90
2018-11-07T07:33:52.749Z,57.70
2018-11-07T07:36:20.914Z,57.70
2018-11-07T07:38:49.052Z,57.30
2018-11-07T07:41:17.220Z,57.50
2018-11-07T07:43:45.363Z,56.40
2018-11-07T07:46:13.509Z,56.40
2018-11-07T07:48:41.642Z,55.50
2018-11-07T07:51:09.768Z,54.80
2018-11-07T07:53:37.901Z,54.70
2018-11-07T07:56:06.044Z,53.80
2018-11-07T07:58:34.176Z,53.90
2018-11-07T08:01:02.347Z,52.70
2018-11-07T08:03:31.573Z,52.00
2018-11-07T08:05:59.704Z,49.80
2018-11-07T08:08:27.838Z,46.60
2018-11-07T08:10:55.984Z,41.50
2018-11-07T08:13:24.147Z,39.80
2018-11-07T08:15:52.291Z,33.40
2018-11-07T08:18:20.436Z,32.10
2018-11-07T08:20:48.560Z,30.80
2018-11-07T08:23:16.711Z,27.70
2018-11-07T08:25:44.844Z,25.30
2018-11-07T08:28:12.980Z,24.60
2018-11-07T08:30:41.134Z,25.60
2018-11-07T08:33:09.287Z,24.90
2018-11-07T08:35:37.413Z,24.60
2018-11-07T08:38:05.848Z,25.50
2018-11-07T08:40:33.987Z,26.80
2018-11-07T08:43:02.131Z,26.60
2018-11-07T08:45:30.268Z,24.90
2018-11-07T08:47:58.409Z,24.80
2018-11-07T08:50:26.528Z,24.50
2018-11-07T08:52:54.696Z,24.80
2018-11-07T08:55:23.415Z,23.80
2018-11-07T08:57:51.592Z,24.10
2018-11-07T09:00:20.940Z,24.70
2018-11-07T09:02:49.074Z,23.10
2018-11-07T09:05:18.055Z,22.90
2018-11-07T09:07:46.743Z,22.30
2018-11-07T09:10:17.695Z,20.30
2018-11-07T09:12:45.800Z,21.80
2018-11-07T09:15:16.077Z,22.90
2018-11-07T09:17:44.203Z,22.50
2018-11-07T09:20:16.498Z,21.90
2018-11-07T09:22:44.625Z,22.00
2018-11-07T09:25:13.470Z,20.20
2018-11-07T09:27:41.802Z,19.70
2018-11-07T09:30:11.869Z,17.70
2018-11-07T09:32:40.073Z,16.30
2018-11-07T09:35:09.561Z,16.00
2018-11-07T09:37:37.842Z,15.60
2018-11-07T09:40:10.276Z,16.10
2018-11-07T09:42:39.308Z,16.10
2018-11-07T09:45:08.693Z,13.40
2018-11-07T09:47:36.870Z,12.70
2018-11-07T09:50:06.247Z,13.50
2018-11-07T09:52:34.352Z,16.30
2018-11-07T09:55:02.518Z,16.90
2018-11-07T09:57:30.632Z,15.10
2018-11-07T09:59:58.766Z,15.10
2018-11-07T10:02:26.864Z,13.60
2018-11-07T10:04:54.997Z,14.00
2018-11-07T10:07:23.098Z,14.80
2018-11-07T10:09:51.195Z,14.90
2018-11-07T10:12:19.328Z,15.50
2018-11-07T10:14:47.397Z,15.60
2018-11-07T10:17:15.503Z,14.30
2018-11-07T10:19:43.621Z,13.10
2018-11-07T10:22:11.747Z,14.40
2018-11-07T10:24:39.869Z,16.50
2018-11-07T10:27:08.244Z,16.50
2018-11-07T10:29:36.603Z,16.80
2018-11-07T10:32:04.881Z,18.20
2018-11-07T10:34:33.061Z,17.00
2018-11-07T10:37:01.400Z,17.50
2018-11-07T10:39:29.529Z,18.20
2018-11-07T10:41:57.853Z,17.30
2018-11-07T10:44:26.030Z,17.80
2018-11-07T10:46:54.097Z,17.00
2018-11-07T10:49:22.216Z,16.80
2018-11-07T10:51:50.358Z,17.00
2018-11-07T10:54:18.443Z,17.50
2018-11-07T10:56:46.640Z,18.80
2018-11-07T10:59:14.762Z,17.30
2018-11-07T11:01:48.263Z,18.30
2018-11-07T11:04:16.363Z,17.80
2018-11-07T11:06:44.467Z,17.20
2018-11-07T11:09:12.568Z,18.40
2018-11-07T11:11:40.742Z,18.80
2018-11-07T11:14:09.217Z,21.00
2018-11-07T11:16:37.363Z,21.20
2018-11-07T11:19:05.854Z,21.50
2018-11-07T11:21:33.980Z,22.40
2018-11-07T11:24:02.109Z,21.60
2018-11-07T11:26:30.209Z,21.70
2018-11-07T11:28:58.350Z,20.40
2018-11-07T11:31:26.473Z,19.20
2018-11-07T11:33:54.597Z,19.40
2018-11-07T11:36:22.665Z,19.60
2018-11-07T11:38:50.796Z,19.80
2018-11-07T11:41:19.047Z,20.70
2018-11-07T11:43:47.068Z,21.90
2018-11-07T11:46:15.193Z,21.70
2018-11-07T11:48:43.370Z,22.40
2018-11-07T11:51:11.513Z,23.50
2018-11-07T11:53:39.956Z,24.10
2018-11-07T11:56:08.135Z,23.40
2018-11-07T11:58:36.258Z,23.40
2018-11-07T12:01:04.388Z,23.00
2018-11-07T12:03:32.551Z,24.00
2018-11-07T12:06:00.691Z,24.60
2018-11-07T12:08:28.944Z,25.60
2018-11-07T12:10:56.980Z,25.70
2018-11-07T12:13:25.168Z,26.00
2018-11-07T12:15:53.288Z,26.10
2018-11-07T12:18:21.422Z,25.60
2018-11-07T12:20:49.560Z,25.80
2018-11-07T12:23:17.693Z,25.00
2018-11-07T12:25:45.842Z,23.80
2018-11-07T12:28:13.984Z,23.60
2018-11-07T12:30:42.112Z,23.30
2018-11-07T12:33:10.233Z,22.70
2018-11-07T12:35:38.397Z,22.10
2018-11-07T12:38:06.522Z,22.00
2018-11-07T12:40:34.652Z,21.50
2018-11-07T12:43:02.816Z,21.60
2018-11-07T12:45:30.941Z,21.90
2018-11-07T12:47:59.094Z,21.00
2018-11-07T12:50:27.278Z,19.90
2018-11-07T12:52:55.393Z,19.40
2018-11-07T12:55:23.565Z,19.60
2018-11-07T12:57:51.726Z,20.10
2018-11-07T13:00:21.655Z,20.60
2018-11-07T13:02:49.844Z,20.50
2018-11-07T13:05:19.060Z,20.60
2018-11-07T13:07:48.040Z,20.40
2018-11-07T13:10:17.324Z,20.20
2018-11-07T13:12:46.039Z,19.80
2018-11-07T13:15:14.784Z,19.30
2018-11-07T13:17:43.192Z,19.50
2018-11-07T13:20:14.736Z,19.20
2018-11-07T13:22:43.840Z,18.80
2018-11-07T13:25:12.500Z,19.50
2018-11-07T13:27:40.643Z,19.80
2018-11-07T13:30:10.839Z,19.90
2018-11-07T13:32:39.044Z,21.70
2018-11-07T13:35:07.999Z,21.90
2018-11-07T13:37:36.445Z,22.80
2018-11-07T13:40:06.851Z,24.10
2018-11-07T13:42:34.973Z,24.70
2018-11-07T13:45:03.136Z,24.80
2018-11-07T13:47:31.277Z,24.80
2018-11-07T13:49:59.429Z,24.20
2018-11-07T13:52:27.570Z,23.60
2018-11-07T13:54:56.223Z,23.60
2018-11-07T13:57:24.353Z,24.30
2018-11-07T13:59:52.500Z,23.70
2018-11-07T14:02:20.720Z,23.90
2018-11-07T14:04:48.871Z,24.40
2018-11-07T14:07:17.036Z,25.00
2018-11-07T14:09:45.162Z,24.90
2018-11-07T14:12:13.312Z,26.00
2018-11-07T14:14:41.508Z,26.40
2018-11-07T14:17:09.664Z,26.30
2018-11-07T14:19:37.778Z,26.10
2018-11-07T14:22:05.907Z,26.80
2018-11-07T14:24:34.027Z,27.40
2018-11-07T14:27:02.164Z,28.10
2018-11-07T14:29:31.605Z,28.70
2018-11-07T14:31:59.756Z,29.40
2018-11-07T14:34:27.892Z,30.70
2018-11-07T14:36:56.091Z,31.30
2018-11-07T14:39:24.168Z,31.60
2018-11-07T14:41:52.299Z,32.50
2018-11-07T14:44:20.420Z,32.50
2018-11-07T14:46:48.601Z,33.70
2018-11-07T14:49:16.772Z,33.80
2018-11-07T14:51:44.924Z,34.20
2018-11-07T14:54:13.077Z,35.30
2018-11-07T14:56:41.200Z,35.90
2018-11-07T14:59:09.360Z,37.20
2018-11-07T15:01:37.606Z,37.70
2018-11-07T15:04:05.640Z,38.20
2018-11-07T15:06:33.753Z,39.00
2018-11-07T15:09:01.891Z,40.30
2018-11-07T15:11:30.083Z,40.70
2018-11-07T15:13:58.583Z,41.60
2018-11-07T15:16:26.717Z,42.00
2018-11-07T15:18:54.845Z,42.80
2018-11-07T15:21:23.192Z,43.80
2018-11-07T15:23:51.317Z,44.50
2018-11-07T15:26:19.436Z,45.00
2018-11-07T15:28:47.568Z,44.90
2018-11-07T15:31:15.707Z,45.50
2018-11-07T15:33:43.912Z,46.00
2018-11-07T15:36:12.160Z,46.10
2018-11-07T15:38:40.242Z,46.70
2018-11-07T15:41:08.351Z,48.20
2018-11-07T15:43:36.543Z,48.70
2018-11-07T15:46:04.799Z,48.30
2018-11-07T15:48:32.959Z,49.10
2018-11-07T15:51:06.616Z,49.40
2018-11-07T15:53:34.961Z,49.60
2018-11-07T15:56:03.100Z,49.90
2018-11-07T15:58:32.667Z,49.60
2018-11-07T16:01:00.774Z,50.90
2018-11-07T16:03:34.255Z,50.50
2018-11-07T16:06:02.630Z,50.60
2018-11-07T16:08:30.882Z,50.70
2018-11-07T16:10:59.023Z,51.20
2018-11-07T16:13:27.270Z,51.00
2018-11-07T16:15:55.391Z,51.90
2018-11-07T16:18:23.521Z,52.10
2018-11-07T16:20:51.664Z,52.40
2018-11-07T16:23:19.815Z,52.90
2018-11-07T16:25:47.967Z,53.20
2018-11-07T16:28:16.081Z,53.00
2018-11-07T16:30:44.220Z,52.90
2018-11-07T16:33:12.381Z,52.70
2018-11-07T16:35:40.506Z,53.00
2018-11-07T16:38:08.637Z,52.90
2018-11-07T16:40:36.818Z,53.20
2018-11-07T16:43:05.380Z,53.60
2018-11-07T16:45:33.517Z,53.70
2018-11-07T16:48:01.654Z,53.80
2018-11-07T16:50:29.916Z,54.00
2018-11-07T16:52:58.089Z,54.20
2018-11-07T16:55:26.220Z,54.10
2018-11-07T16:57:54.390Z,54.60
2018-11-07T17:00:22.617Z,55.10
2018-11-07T17:02:50.891Z,55.00
2018-11-07T17:05:19.463Z,55.50
2018-11-07T17:07:47.783Z,55.30
2018-11-07T17:10:16.312Z,55.20
2018-11-07T17:12:44.512Z,55.60
2018-11-07T17:15:12.688Z,55.40
2018-11-07T17:17:40.809Z,55.70
2018-11-07T17:20:10.247Z,56.10
2018-11-07T17:22:38.432Z,56.20
2018-11-07T17:25:08.576Z,56.60
2018-11-07T17:27:36.755Z,56.40
2018-11-07T17:30:05.758Z,56.50
2018-11-07T17:32:33.920Z,56.60
2018-11-07T17:35:02.053Z,57.50
2018-11-07T17:37:30.224Z,57.20
2018-11-07T17:39:58.335Z,57.40
2018-11-07T17:42:26.462Z,57.30
2018-11-07T17:44:54.583Z,57.00
2018-11-07T17:47:22.697Z,57.50
2018-11-07T17:49:50.827Z,57.90
2018-11-07T17:52:18.965Z,57.60
2018-11-07T17:54:47.123Z,57.60
2018-11-07T17:57:16.446Z,57.70
2018-11-07T17:59:44.664Z,58.50
2018-11-07T18:02:13.272Z,58.80
2018-11-07T18:04:42.148Z,58.40
2018-11-07T18:07:10.304Z,59.60
2018-11-07T18:09:38.470Z,59.80
2018-11-07T18:12:06.620Z,60.60
2018-11-07T18:14:34.717Z,59.60
2018-11-07T18:17:02.867Z,60.30
2018-11-07T18:19:31.075Z,64.10
2018-11-07T18:21:59.159Z,63.60
2018-11-07T18:24:27.289Z,63.80
2018-11-07T18:26:56.492Z,66.90
2018-11-07T18:29:24.612Z,66.30
2018-11-07T18:31:52.776Z,66.80
2018-11-07T18:34:21.000Z,69.20
2018-11-07T18:36:49.109Z,69.30
2018-11-07T18:39:17.265Z,68.80
2018-11-07T18:41:45.368Z,68.10
2018-11-07T18:44:13.640Z,68.80
2018-11-07T18:46:41.763Z,67.50
2018-11-07T18:49:09.903Z,66.60
2018-11-07T18:51:38.048Z,67.70
2018-11-07T18:54:06.242Z,67.40
2018-11-07T18:56:34.352Z,67.10
2018-11-07T18:59:02.533Z,66.70
2018-11-07T19:01:30.644Z,67.40
2018-11-07T19:03:58.782Z,66.60
2018-11-07T19:06:27.090Z,67.40
2018-11-07T19:08:55.222Z,66.80
2018-11-07T19:11:23.420Z,67.60
2018-11-07T19:13:51.550Z,68.90
2018-11-07T19:16:19.736Z,68.90
2018-11-07T19:18:47.876Z,70.10
2018-11-07T19:21:15.988Z,70.60
2018-11-07T19:23:44.286Z,69.80
2018-11-07T19:26:12.379Z,69.10
2018-11-07T19:28:40.600Z,69.30
2018-11-07T19:31:08.717Z,69.10
2018-11-07T19:33:36.824Z,70.00
2018-11-07T19:36:05.159Z,71.20
2018-11-07T19:38:33.280Z,70.30
2018-11-07T19:41:01.445Z,68.40
2018-11-07T19:43:29.603Z,70.40
2018-11-07T19:45:57.724Z,70.50
2018-11-07T19:48:25.876Z,71.00
2018-11-07T19:50:54.016Z,69.80
2018-11-07T19:53:22.137Z,71.30
2018-11-07T19:55:50.368Z,71.80
2018-11-07T19:58:19.268Z,70.70
2018-11-07T20:00:47.514Z,72.90
2018-11-07T20:03:15.656Z,71.90
2018-11-07T20:05:43.799Z,72.10
2018-11-07T20:08:11.929Z,72.70
2018-11-07T20:10:40.056Z,73.40
2018-11-07T20:13:08.192Z,74.90
2018-11-07T20:15:36.301Z,74.30
2018-11-07T20:18:04.448Z,75.00
2018-11-07T20:20:32.622Z,75.50
2018-11-07T20:23:00.810Z,76.10
2018-11-07T20:25:29.021Z,76.50
2018-11-07T20:27:57.148Z,76.70
2018-11-07T20:30:25.292Z,77.30
2018-11-07T20:32:53.415Z,78.90
2018-11-07T20:35:22.516Z,78.90
2018-11-07T20:37:50.647Z,78.70
2018-11-07T20:40:19.968Z,79.20
2018-11-07T20:42:48.148Z,79.20
2018-11-07T20:45:16.992Z,80.20
2018-11-07T20:47:45.515Z,81.60
2018-11-07T20:50:15.100Z,81.90
2018-11-07T20:52:43.619Z,82.30
2018-11-07T20:55:12.659Z,82.60
2018-11-07T20:57:40.855Z,82.20
2018-11-07T21:00:11.992Z,82.00
2018-11-07T21:02:40.636Z,81.80
2018-11-07T21:05:09.075Z,82.70
2018-11-07T21:07:37.736Z,83.60
2018-11-07T21:10:08.029Z,83.40
2018-11-07T21:12:36.179Z,84.00
2018-11-07T21:15:05.103Z,84.00
2018-11-07T21:17:33.224Z,84.10
2018-11-07T21:20:01.387Z,83.80
2018-11-07T21:22:29.589Z,83.70
2018-11-07T21:24:57.760Z,83.40
2018-11-07T21:27:25.938Z,83.60
2018-11-07T21:29:54.080Z,83.70
2018-11-07T21:32:22.276Z,83.60
2018-11-07T21:34:50.469Z,83.80
2018-11-07T21:37:18.616Z,83.70
2018-11-07T21:39:46.913Z,83.60
2018-11-07T21:42:15.072Z,83.30
2018-11-07T21:44:43.335Z,83.10
2018-11-07T21:47:11.440Z,84.00
2018-11-07T21:49:39.564Z,84.80
2018-11-07T21:52:07.992Z,85.40
2018-11-07T21:54:36.217Z,85.20
2018-11-07T21:57:04.390Z,84.50
2018-11-07T21:59:39.047Z,84.40
2018-11-07T22:02:07.130Z,84.70
2018-11-07T22:04:35.247Z,85.40
2018-11-07T22:07:03.443Z,85.60
2018-11-07T22:09:31.563Z,84.90
2018-11-07T22:11:59.779Z,85.40
2018-11-07T22:14:27.943Z,85.70
2018-11-07T22:16:56.065Z,86.40
2018-11-07T22:19:24.260Z,85.70
2018-11-07T22:21:52.391Z,85.70
2018-11-07T22:24:20.760Z,84.80
2018-11-07T22:26:48.877Z,84.70
2018-11-07T22:29:19.250Z,84.90
2018-11-07T22:31:48.695Z,86.30
2018-11-07T22:34:16.864Z,86.70
2018-11-07T22:36:45.008Z,86.30
2018-11-07T22:39:14.225Z,86.00
2018-11-07T22:41:43.231Z,85.80
2018-11-07T22:44:11.347Z,85.80
2018-11-07T22:46:39.647Z,86.00
2018-11-07T22:49:07.856Z,85.70
2018-11-07T22:51:36.147Z,85.60
2018-11-07T22:54:04.715Z,86.20
2018-11-07T22:56:32.962Z,85.90
2018-11-07T22:59:01.109Z,86.20
2018-11-07T23:01:34.740Z,86.60
2018-11-07T23:04:02.948Z,86.80
2018-11-07T23:06:31.072Z,85.80
2018-11-07T23:08:59.199Z,86.10
2018-11-07T23:11:27.348Z,86.30
2018-11-07T23:13:55.520Z,86.00
2018-11-07T23:16:23.632Z,86.00
2018-11-07T23:18:51.748Z,85.80
2018-11-07T23:21:19.856Z,86.10
2018-11-07T23:23:47.995Z,86.00
2018-11-07T23:26:16.108Z,85.90
2018-11-07T23:28:44.233Z,85.60
2018-11-07T23:31:12.348Z,86.00
2018-11-07T23:33:40.488Z,85.80
2018-11-07T23:36:08.644Z,85.50
2018-11-07T23:38:36.755Z,86.30
2018-11-07T23:41:05.341Z,86.70
2018-11-07T23:43:33.438Z,86.70
2018-11-07T23:46:01.570Z,86.30
2018-11-07T23:48:29.696Z,86.70
2018-11-07T23:51:03.519Z,87.30
2018-11-07T23:53:31.659Z,87.50
2018-11-07T23:55:59.764Z,87.30
2018-11-07T23:58:27.899Z,87.20
